createdAt,value
2017-02-21T00:00:35.709Z,0
2017-02-21T00:01:45.174Z,0
2017-02-21T00:02:54.245Z,0
2017-02-21T00:04:04.019Z,0
2017-02-21T00:05:13.647Z,0
2017-02-21T00:06:23.504Z,0
2017-02-21T00:07:32.632Z,0
2017-02-21T00:08:42.010Z,0
2017-02-21T00:09:51.728Z,0
2017-02-21T00:11:00.993Z,0
2017-02-21T00:12:10.230Z,0
2017-02-21T00:13:20.561Z,0
2017-02-21T00:14:30.566Z,0
2017-02-21T00:15:40.171Z,0
2017-02-21T00:16:50.077Z,0
2017-02-21T00:17:59.534Z,0
2017-02-21T00:19:09.016Z,0
2017-02-21T00:20:18.943Z,0
2017-02-21T00:21:28.547Z,0
2017-02-21T00:22:37.223Z,0
2017-02-21T00:23:46.311Z,0
2017-02-21T00:24:55.793Z,0
2017-02-21T00:26:04.548Z,0
2017-02-21T00:27:13.627Z,0
2017-02-21T00:28:22.717Z,0
2017-02-21T00:29:31.470Z,0
2017-02-21T00:30:40.539Z,0
2017-02-21T00:31:50.366Z,0
2017-02-21T00:32:59.953Z,0
2017-02-21T00:34:09.436Z,0
2017-02-21T00:35:19.286Z,0
2017-02-21T00:36:28.750Z,0
2017-02-21T00:37:37.832Z,0
2017-02-21T00:38:48.467Z,0
2017-02-21T00:39:57.260Z,0
2017-02-21T00:41:07.165Z,0
2017-02-21T00:42:16.612Z,0
2017-02-21T00:43:25.695Z,0
2017-02-21T00:44:35.146Z,0
2017-02-21T00:45:45.081Z,0
2017-02-21T00:46:55.305Z,0
2017-02-21T00:48:05.158Z,0
2017-02-21T00:49:14.664Z,0
2017-02-21T00:50:24.230Z,0
2017-02-21T00:51:33.701Z,0
2017-02-21T00:52:44.299Z,0
2017-02-21T00:53:53.089Z,0
2017-02-21T00:55:02.539Z,0
2017-02-21T00:56:11.233Z,0
2017-02-21T00:57:20.691Z,0
2017-02-21T00:58:30.184Z,0
2017-02-21T00:59:39.635Z,0
2017-02-21T01:00:49.471Z,0
2017-02-21T01:01:58.731Z,0
2017-02-21T01:03:08.232Z,0
2017-02-21T01:04:17.348Z,0
2017-02-21T01:05:26.791Z,0
2017-02-21T01:06:36.355Z,0
2017-02-21T01:07:45.443Z,0
2017-02-21T01:08:54.546Z,0
2017-02-21T01:10:04.007Z,0
2017-02-21T01:11:13.455Z,0
2017-02-21T01:12:23.292Z,0
2017-02-21T01:13:32.373Z,0
2017-02-21T01:14:42.802Z,0
2017-02-21T01:15:52.635Z,0
2017-02-21T01:17:02.494Z,0
2017-02-21T01:18:11.669Z,0
2017-02-21T01:19:20.747Z,0
2017-02-21T01:20:30.670Z,0
2017-02-21T01:21:39.359Z,0
2017-02-21T01:22:48.819Z,0
2017-02-21T01:23:58.280Z,0
2017-02-21T01:25:07.814Z,0
2017-02-21T01:26:17.361Z,0
2017-02-21T01:27:26.829Z,0
2017-02-21T01:28:36.669Z,0
2017-02-21T01:29:46.116Z,0
2017-02-21T01:30:55.200Z,0
2017-02-21T01:32:04.656Z,0
2017-02-21T01:33:14.105Z,0
2017-02-21T01:34:22.797Z,0
2017-02-21T01:35:31.869Z,0
2017-02-21T01:36:41.722Z,0
2017-02-21T01:37:51.171Z,0
2017-02-21T01:39:00.249Z,0
2017-02-21T01:40:09.334Z,0
2017-02-21T01:41:18.045Z,0
2017-02-21T01:42:27.116Z,0
2017-02-21T01:43:37.337Z,0
2017-02-21T01:44:46.810Z,0
2017-02-21T01:45:55.878Z,0
2017-02-21T01:47:04.963Z,0
2017-02-21T01:48:14.068Z,0
2017-02-21T01:49:22.760Z,0
2017-02-21T01:50:32.223Z,0
2017-02-21T01:51:41.683Z,0
2017-02-21T01:52:51.167Z,0
2017-02-21T01:54:01.002Z,0
2017-02-21T01:55:10.466Z,0
2017-02-21T01:56:19.921Z,0
2017-02-21T01:57:28.996Z,0
2017-02-21T01:58:38.452Z,0
2017-02-21T01:59:47.527Z,0
2017-02-21T02:00:56.214Z,0
2017-02-21T02:02:05.280Z,0
2017-02-21T02:03:13.961Z,0
2017-02-21T02:04:23.806Z,0
2017-02-21T02:05:33.263Z,0
2017-02-21T02:06:42.329Z,0
2017-02-21T02:07:51.011Z,0
2017-02-21T02:09:00.112Z,0
2017-02-21T02:10:09.183Z,0
2017-02-21T02:11:17.872Z,0
2017-02-21T02:12:26.555Z,0
2017-02-21T02:13:35.621Z,0
2017-02-21T02:14:45.098Z,0
2017-02-21T02:15:54.551Z,0
2017-02-21T02:17:04.055Z,0
2017-02-21T02:18:12.806Z,0
2017-02-21T02:19:22.279Z,0
2017-02-21T02:20:31.728Z,0
2017-02-21T02:21:40.829Z,0
2017-02-21T02:22:50.295Z,0
2017-02-21T02:23:59.378Z,0
2017-02-21T02:25:08.830Z,0
2017-02-21T02:26:18.337Z,0
2017-02-21T02:27:27.404Z,0
2017-02-21T02:28:36.849Z,0
2017-02-21T02:29:45.925Z,0
2017-02-21T02:30:55.010Z,0
2017-02-21T02:32:04.484Z,0
2017-02-21T02:33:13.570Z,0
2017-02-21T02:34:23.043Z,0
2017-02-21T02:35:32.130Z,0
2017-02-21T02:36:41.958Z,0
2017-02-21T02:37:51.033Z,0
2017-02-21T02:39:00.503Z,0
2017-02-21T02:40:10.351Z,0
2017-02-21T02:41:19.055Z,0
2017-02-21T02:42:28.513Z,0
2017-02-21T02:43:37.198Z,0
2017-02-21T02:44:46.293Z,0
2017-02-21T02:45:54.977Z,0
2017-02-21T02:47:04.056Z,0
2017-02-21T02:48:13.881Z,0
2017-02-21T02:49:22.580Z,0
2017-02-21T02:50:32.409Z,0
2017-02-21T02:51:42.243Z,0
2017-02-21T02:52:51.699Z,0
2017-02-21T02:54:01.528Z,0
2017-02-21T02:55:11.007Z,0
2017-02-21T02:56:20.465Z,0
2017-02-21T02:57:29.552Z,0
2017-02-21T02:58:38.613Z,0
2017-02-21T02:59:48.060Z,0
2017-02-21T03:00:56.749Z,0
2017-02-21T03:02:06.592Z,0
2017-02-21T03:03:15.284Z,0
2017-02-21T03:04:24.343Z,0
2017-02-21T03:05:33.430Z,0
2017-02-21T03:06:42.873Z,0
2017-02-21T03:07:52.327Z,0
2017-02-21T03:09:01.778Z,0
2017-02-21T03:10:10.468Z,0
2017-02-21T03:11:20.310Z,0
2017-02-21T03:12:29.752Z,0
2017-02-21T03:13:39.598Z,0
2017-02-21T03:14:48.664Z,0
2017-02-21T03:15:57.745Z,0
2017-02-21T03:17:06.822Z,0
2017-02-21T03:18:15.509Z,0
2017-02-21T03:19:24.583Z,0
2017-02-21T03:20:34.439Z,0
2017-02-21T03:21:43.876Z,0
2017-02-21T03:22:52.948Z,0
2017-02-21T03:24:02.394Z,0
2017-02-21T03:25:11.851Z,0
2017-02-21T03:26:20.922Z,0
2017-02-21T03:27:30.000Z,0
2017-02-21T03:28:39.064Z,0
2017-02-21T03:29:48.140Z,0
2017-02-21T03:30:57.577Z,0
2017-02-21T03:32:07.027Z,0
2017-02-21T03:33:16.866Z,0
2017-02-21T03:34:26.324Z,0
2017-02-21T03:35:36.560Z,0
2017-02-21T03:36:45.636Z,0
2017-02-21T03:37:54.727Z,0
2017-02-21T03:39:03.835Z,0
2017-02-21T03:40:13.292Z,0
2017-02-21T03:41:22.375Z,0
2017-02-21T03:42:31.451Z,0
2017-02-21T03:43:41.316Z,0
2017-02-21T03:44:51.151Z,0
2017-02-21T03:46:00.593Z,0
2017-02-21T03:47:10.075Z,0
2017-02-21T03:48:19.913Z,0
2017-02-21T03:49:29.394Z,0
2017-02-21T03:50:38.479Z,0
2017-02-21T03:51:47.546Z,0
2017-02-21T03:52:57.021Z,0
2017-02-21T03:54:06.479Z,0
2017-02-21T03:55:15.547Z,0
2017-02-21T03:56:24.990Z,0
2017-02-21T03:57:34.065Z,0
2017-02-21T03:58:43.903Z,0
2017-02-21T03:59:52.590Z,0
2017-02-21T04:01:02.055Z,0
2017-02-21T04:02:11.515Z,0
2017-02-21T04:03:20.595Z,0
2017-02-21T04:04:30.060Z,0
2017-02-21T04:05:39.515Z,0
2017-02-21T04:06:48.204Z,0
2017-02-21T04:07:58.056Z,0
2017-02-21T04:09:07.879Z,0
2017-02-21T04:10:17.340Z,0
2017-02-21T04:11:26.401Z,0
2017-02-21T04:12:35.135Z,0
2017-02-21T04:13:44.579Z,0
2017-02-21T04:14:53.642Z,0
2017-02-21T04:16:03.480Z,0
2017-02-21T04:17:13.316Z,0
2017-02-21T04:18:23.135Z,0
2017-02-21T04:19:32.591Z,0
2017-02-21T04:20:42.042Z,0
2017-02-21T04:21:51.132Z,0
2017-02-21T04:23:00.984Z,0
2017-02-21T04:24:10.056Z,0
2017-02-21T04:25:20.284Z,0
2017-02-21T04:26:29.743Z,0
2017-02-21T04:27:38.820Z,0
2017-02-21T04:28:48.655Z,0
2017-02-21T04:29:57.361Z,0
2017-02-21T04:31:06.430Z,0
2017-02-21T04:32:16.259Z,0
2017-02-21T04:33:26.116Z,0
2017-02-21T04:34:35.208Z,0
2017-02-21T04:35:45.038Z,0
2017-02-21T04:36:53.764Z,0
2017-02-21T04:38:02.843Z,0
2017-02-21T04:39:11.917Z,0
2017-02-21T04:40:20.979Z,0
2017-02-21T04:41:30.427Z,0
2017-02-21T04:42:39.495Z,0
2017-02-21T04:43:48.587Z,0
2017-02-21T04:44:58.055Z,0
2017-02-21T04:46:07.128Z,0
2017-02-21T04:47:16.574Z,0
2017-02-21T04:48:26.022Z,0
2017-02-21T04:49:35.467Z,0
2017-02-21T04:50:44.551Z,0
2017-02-21T04:51:53.994Z,0
2017-02-21T04:53:03.066Z,0
2017-02-21T04:54:12.134Z,0
2017-02-21T04:55:21.198Z,0
2017-02-21T04:56:30.282Z,0
2017-02-21T04:57:39.745Z,0
2017-02-21T04:58:49.191Z,0
2017-02-21T04:59:58.263Z,0
2017-02-21T05:01:07.735Z,0
2017-02-21T05:02:16.808Z,0
2017-02-21T05:03:26.255Z,0
2017-02-21T05:04:35.334Z,0
2017-02-21T05:05:45.179Z,0
2017-02-21T05:06:54.632Z,0
2017-02-21T05:08:03.728Z,0
2017-02-21T05:09:12.818Z,0
2017-02-21T05:10:22.272Z,0
2017-02-21T05:11:32.108Z,0
2017-02-21T05:12:41.959Z,0
2017-02-21T05:13:51.041Z,0
2017-02-21T05:15:00.126Z,0
2017-02-21T05:16:09.993Z,0
2017-02-21T05:17:18.679Z,0
2017-02-21T05:18:28.140Z,0
2017-02-21T05:19:36.818Z,0
2017-02-21T05:20:46.276Z,0
2017-02-21T05:21:55.751Z,0
2017-02-21T05:23:05.193Z,0
2017-02-21T05:24:13.891Z,0
2017-02-21T05:25:23.344Z,0
2017-02-21T05:26:32.791Z,0
2017-02-21T05:27:42.299Z,0
2017-02-21T05:28:50.991Z,0
2017-02-21T05:29:59.685Z,0
2017-02-21T05:31:08.765Z,0
2017-02-21T05:32:18.584Z,0
2017-02-21T05:33:28.423Z,0
2017-02-21T05:34:37.887Z,0
2017-02-21T05:35:48.113Z,0
2017-02-21T05:36:57.199Z,0
2017-02-21T05:38:06.282Z,0
2017-02-21T05:39:16.489Z,0
2017-02-21T05:40:25.982Z,0
2017-02-21T05:41:35.442Z,0
2017-02-21T05:42:44.504Z,0
2017-02-21T05:43:53.194Z,0
2017-02-21T05:45:03.032Z,0
2017-02-21T05:46:12.878Z,0
2017-02-21T05:47:21.938Z,0
2017-02-21T05:48:30.617Z,0
2017-02-21T05:49:39.314Z,0
2017-02-21T05:50:48.370Z,0
2017-02-21T05:51:57.453Z,0
2017-02-21T05:53:06.504Z,0
2017-02-21T05:54:15.567Z,0
2017-02-21T05:55:25.012Z,0
2017-02-21T05:56:34.456Z,0
2017-02-21T05:57:43.924Z,0
2017-02-21T05:58:53.016Z,0
2017-02-21T06:00:02.842Z,0
2017-02-21T06:01:12.698Z,0
2017-02-21T06:02:21.771Z,0
2017-02-21T06:03:30.453Z,0
2017-02-21T06:04:39.561Z,0
2017-02-21T06:05:49.042Z,0
2017-02-21T06:06:58.110Z,0
2017-02-21T06:08:06.801Z,0
2017-02-21T06:09:15.915Z,0
2017-02-21T06:10:25.006Z,0
2017-02-21T06:11:34.075Z,0
2017-02-21T06:12:43.918Z,0
2017-02-21T06:13:53.373Z,0
2017-02-21T06:15:02.819Z,0
2017-02-21T06:16:12.261Z,0
2017-02-21T06:17:21.728Z,0
2017-02-21T06:18:31.210Z,0
2017-02-21T06:19:40.657Z,0
2017-02-21T06:20:50.115Z,0
2017-02-21T06:21:58.813Z,0
2017-02-21T06:23:07.511Z,0
2017-02-21T06:24:17.360Z,0
2017-02-21T06:25:26.799Z,0
2017-02-21T06:26:36.243Z,0
2017-02-21T06:27:46.458Z,0
2017-02-21T06:28:56.296Z,0
2017-02-21T06:30:06.125Z,0
2017-02-21T06:31:15.573Z,5
2017-02-21T06:32:25.031Z,5
2017-02-21T06:33:34.497Z,5
2017-02-21T06:34:43.571Z,5
2017-02-21T06:35:52.263Z,5
2017-02-21T06:37:01.358Z,10
2017-02-21T06:38:10.427Z,10
2017-02-21T06:39:19.132Z,10
2017-02-21T06:40:28.226Z,10
2017-02-21T06:41:38.059Z,10
2017-02-21T06:42:46.764Z,15
2017-02-21T06:43:55.844Z,20
2017-02-21T06:45:04.921Z,20
2017-02-21T06:46:13.619Z,25
2017-02-21T06:47:22.694Z,25
2017-02-21T06:48:32.154Z,30
2017-02-21T06:49:41.594Z,35
2017-02-21T06:50:51.070Z,35
2017-02-21T06:52:00.529Z,40
2017-02-21T06:53:09.984Z,45
2017-02-21T06:54:18.675Z,45
2017-02-21T06:55:27.755Z,50
2017-02-21T06:56:36.830Z,50
2017-02-21T06:57:45.508Z,55
2017-02-21T06:58:55.354Z,55
2017-02-21T07:00:04.830Z,50
2017-02-21T07:01:13.894Z,50
2017-02-21T07:02:23.360Z,50
2017-02-21T07:03:33.566Z,50
2017-02-21T07:04:42.640Z,50
2017-02-21T07:05:51.332Z,50
2017-02-21T07:07:00.041Z,50
2017-02-21T07:08:09.115Z,50
2017-02-21T07:09:18.574Z,50
2017-02-21T07:10:28.034Z,50
2017-02-21T07:11:37.879Z,55
2017-02-21T07:12:47.719Z,60
2017-02-21T07:13:56.423Z,65
2017-02-21T07:15:05.498Z,70
2017-02-21T07:16:14.615Z,75
2017-02-21T07:17:24.078Z,80
2017-02-21T07:18:34.297Z,85
2017-02-21T07:19:43.782Z,95
2017-02-21T07:20:52.856Z,100
2017-02-21T07:22:01.924Z,110
2017-02-21T07:23:11.000Z,115
2017-02-21T07:24:20.446Z,125
2017-02-21T07:25:30.297Z,125
2017-02-21T07:26:38.990Z,125
2017-02-21T07:27:47.674Z,125
2017-02-21T07:28:57.125Z,120
2017-02-21T07:30:06.962Z,125
2017-02-21T07:31:16.040Z,125
2017-02-21T07:32:25.105Z,120
2017-02-21T07:33:34.171Z,120
2017-02-21T07:34:42.865Z,120
2017-02-21T07:35:51.936Z,120
2017-02-21T07:37:01.001Z,120
2017-02-21T07:38:09.688Z,120
2017-02-21T07:39:19.145Z,125
2017-02-21T07:40:28.987Z,125
2017-02-21T07:41:38.457Z,130
2017-02-21T07:42:47.530Z,130
2017-02-21T07:43:56.608Z,135
2017-02-21T07:45:06.455Z,135
2017-02-21T07:46:15.930Z,140
2017-02-21T07:47:25.392Z,145
2017-02-21T07:48:35.241Z,150
2017-02-21T07:49:45.461Z,155
2017-02-21T07:50:54.917Z,165
2017-02-21T07:52:04.368Z,175
2017-02-21T07:53:13.825Z,190
2017-02-21T07:54:22.900Z,195
2017-02-21T07:55:32.363Z,200
2017-02-21T07:56:42.202Z,200
2017-02-21T07:57:52.045Z,200
2017-02-21T07:59:01.891Z,195
2017-02-21T08:00:11.369Z,195
2017-02-21T08:01:20.841Z,185
2017-02-21T08:02:31.111Z,180
2017-02-21T08:03:40.567Z,185
2017-02-21T08:04:50.019Z,190
2017-02-21T08:05:59.862Z,195
2017-02-21T08:07:09.334Z,200
2017-02-21T08:08:18.397Z,215
2017-02-21T08:09:27.095Z,220
2017-02-21T08:10:36.534Z,230
2017-02-21T08:11:45.252Z,230
2017-02-21T08:12:54.336Z,215
2017-02-21T08:14:03.414Z,205
2017-02-21T08:15:12.481Z,205
2017-02-21T08:16:21.547Z,225
2017-02-21T08:17:31.027Z,245
2017-02-21T08:18:39.707Z,255
2017-02-21T08:19:49.149Z,265
2017-02-21T08:20:58.206Z,280
2017-02-21T08:22:07.281Z,280
2017-02-21T08:23:16.354Z,285
2017-02-21T08:24:26.586Z,280
2017-02-21T08:25:36.075Z,295
2017-02-21T08:26:45.537Z,295
2017-02-21T08:27:54.619Z,305
2017-02-21T08:29:04.446Z,310
2017-02-21T08:30:13.531Z,305
2017-02-21T08:31:22.619Z,305
2017-02-21T08:32:32.472Z,315
2017-02-21T08:33:41.553Z,330
2017-02-21T08:34:50.253Z,330
2017-02-21T08:36:00.126Z,330
2017-02-21T08:37:09.582Z,325
2017-02-21T08:38:18.276Z,335
2017-02-21T08:39:26.973Z,330
2017-02-21T08:40:35.668Z,345
2017-02-21T08:41:44.730Z,345
2017-02-21T08:42:54.575Z,345
2017-02-21T08:44:03.675Z,360
2017-02-21T08:45:12.378Z,385
2017-02-21T08:46:22.221Z,445
2017-02-21T08:47:31.290Z,400
2017-02-21T08:48:40.363Z,375
2017-02-21T08:49:49.818Z,390
2017-02-21T08:50:59.661Z,385
2017-02-21T08:52:08.356Z,400
2017-02-21T08:53:17.432Z,455
2017-02-21T08:54:27.647Z,505
2017-02-21T08:55:37.107Z,500
2017-02-21T08:56:46.575Z,560
2017-02-21T08:57:55.660Z,635
2017-02-21T08:59:05.109Z,505
2017-02-21T09:00:14.568Z,500
2017-02-21T09:01:24.405Z,505
2017-02-21T09:02:33.847Z,500
2017-02-21T09:03:43.302Z,425
2017-02-21T09:04:52.391Z,345
2017-02-21T09:06:01.500Z,365
2017-02-21T09:07:10.584Z,455
2017-02-21T09:08:19.655Z,485
2017-02-21T09:09:28.727Z,500
2017-02-21T09:10:37.407Z,550
2017-02-21T09:11:47.663Z,625
2017-02-21T09:12:56.731Z,625
2017-02-21T09:14:06.192Z,495
2017-02-21T09:15:15.639Z,600
2017-02-21T09:16:25.338Z,565
2017-02-21T09:17:34.134Z,640
2017-02-21T09:18:43.207Z,555
2017-02-21T09:19:53.060Z,640
2017-02-21T09:21:01.778Z,720
2017-02-21T09:22:10.851Z,595
2017-02-21T09:23:19.546Z,700
2017-02-21T09:24:28.245Z,660
2017-02-21T09:25:36.978Z,685
2017-02-21T09:26:46.063Z,575
2017-02-21T09:27:54.779Z,595
2017-02-21T09:29:04.236Z,600
2017-02-21T09:30:13.328Z,515
2017-02-21T09:31:22.062Z,450
2017-02-21T09:32:30.753Z,375
2017-02-21T09:33:39.831Z,315
2017-02-21T09:34:49.708Z,360
2017-02-21T09:35:59.157Z,355
2017-02-21T09:37:08.636Z,390
2017-02-21T09:38:17.722Z,445
2017-02-21T09:39:26.825Z,430
2017-02-21T09:40:36.708Z,345
2017-02-21T09:41:45.847Z,320
2017-02-21T09:42:54.549Z,390
2017-02-21T09:44:03.235Z,440
2017-02-21T09:45:13.466Z,395
2017-02-21T09:46:22.203Z,545
2017-02-21T09:47:31.297Z,860
2017-02-21T09:48:40.373Z,595
2017-02-21T09:49:49.449Z,550
2017-02-21T09:50:59.269Z,440
2017-02-21T09:52:08.353Z,380
2017-02-21T09:53:17.810Z,465
2017-02-21T09:54:27.641Z,515
2017-02-21T09:55:36.887Z,655
2017-02-21T09:56:46.483Z,525
2017-02-21T09:57:56.016Z,810
2017-02-21T09:59:05.856Z,390
2017-02-21T10:00:15.306Z,415
2017-02-21T10:01:24.378Z,485
2017-02-21T10:02:33.827Z,795
2017-02-21T10:03:43.671Z,870
2017-02-21T10:04:52.379Z,900
2017-02-21T10:06:01.458Z,495
2017-02-21T10:07:11.291Z,910
2017-02-21T10:08:20.359Z,950
2017-02-21T10:09:29.461Z,805
2017-02-21T10:10:38.912Z,735
2017-02-21T10:11:48.375Z,845
2017-02-21T10:12:57.462Z,835
2017-02-21T10:14:06.944Z,930
2017-02-21T10:15:16.024Z,580
2017-02-21T10:16:25.474Z,960
2017-02-21T10:17:34.577Z,615
2017-02-21T10:18:44.408Z,1200
2017-02-21T10:19:54.240Z,535
2017-02-21T10:21:04.101Z,700
2017-02-21T10:22:13.932Z,585
2017-02-21T10:23:23.779Z,645
2017-02-21T10:24:33.622Z,720
2017-02-21T10:25:43.091Z,625
2017-02-21T10:26:53.318Z,1105
2017-02-21T10:28:02.427Z,555
2017-02-21T10:29:11.516Z,905
2017-02-21T10:30:20.618Z,1145
2017-02-21T10:31:30.460Z,1140
2017-02-21T10:32:39.921Z,1115
2017-02-21T10:33:49.775Z,1155
2017-02-21T10:34:59.227Z,1290
2017-02-21T10:36:08.703Z,1340
2017-02-21T10:37:17.783Z,1340
2017-02-21T10:38:26.494Z,1335
2017-02-21T10:39:35.961Z,1280
2017-02-21T10:40:44.654Z,1380
2017-02-21T10:41:54.121Z,1500
2017-02-21T10:43:03.215Z,785
2017-02-21T10:44:13.047Z,1395
2017-02-21T10:45:22.143Z,1400
2017-02-21T10:46:31.236Z,1485
2017-02-21T10:47:41.450Z,1545
2017-02-21T10:48:50.531Z,1695
2017-02-21T10:49:59.641Z,1445
2017-02-21T10:51:09.090Z,1455
2017-02-21T10:52:18.557Z,840
2017-02-21T10:53:28.014Z,1515
2017-02-21T10:54:37.092Z,1580
2017-02-21T10:55:46.943Z,1575
2017-02-21T10:56:56.023Z,985
2017-02-21T10:58:05.103Z,1625
2017-02-21T10:59:14.563Z,1590
2017-02-21T11:00:24.017Z,1565
2017-02-21T11:01:33.087Z,1380
2017-02-21T11:02:42.565Z,695
2017-02-21T11:03:52.042Z,615
2017-02-21T11:05:01.128Z,1525
2017-02-21T11:06:10.590Z,1405
2017-02-21T11:07:19.682Z,1540
2017-02-21T11:08:29.539Z,1350
2017-02-21T11:09:38.243Z,930
2017-02-21T11:10:46.930Z,760
2017-02-21T11:11:56.399Z,1345
2017-02-21T11:13:05.849Z,630
2017-02-21T11:14:15.687Z,605
2017-02-21T11:15:24.394Z,540
2017-02-21T11:16:33.085Z,460
2017-02-21T11:17:42.170Z,485
2017-02-21T11:18:51.274Z,550
2017-02-21T11:20:01.150Z,545
2017-02-21T11:21:10.995Z,585
2017-02-21T11:22:20.840Z,635
2017-02-21T11:23:30.676Z,610
2017-02-21T11:24:39.743Z,635
2017-02-21T11:25:48.829Z,650
2017-02-21T11:26:58.283Z,725
2017-02-21T11:28:08.116Z,665
2017-02-21T11:29:17.601Z,605
2017-02-21T11:30:26.307Z,645
2017-02-21T11:31:35.374Z,655
2017-02-21T11:32:44.821Z,635
2017-02-21T11:33:54.666Z,715
2017-02-21T11:35:04.523Z,1110
2017-02-21T11:36:13.636Z,995
2017-02-21T11:37:22.723Z,940
2017-02-21T11:38:32.558Z,895
2017-02-21T11:39:42.020Z,890
2017-02-21T11:40:51.098Z,955
2017-02-21T11:42:00.551Z,920
2017-02-21T11:43:09.622Z,545
2017-02-21T11:44:18.719Z,495
2017-02-21T11:45:28.561Z,495
2017-02-21T11:46:37.634Z,520
2017-02-21T11:47:47.097Z,570
2017-02-21T11:48:56.190Z,590
2017-02-21T11:50:06.057Z,605
2017-02-21T11:51:14.752Z,620
2017-02-21T11:52:24.222Z,620
2017-02-21T11:53:33.694Z,645
2017-02-21T11:54:42.399Z,590
2017-02-21T11:55:51.856Z,570
2017-02-21T11:57:00.925Z,600
2017-02-21T11:58:10.003Z,600
2017-02-21T11:59:19.472Z,575
2017-02-21T12:00:29.330Z,565
2017-02-21T12:01:38.797Z,580
2017-02-21T12:02:48.257Z,590
2017-02-21T12:03:56.967Z,575
2017-02-21T12:05:06.793Z,540
2017-02-21T12:06:16.256Z,510
2017-02-21T12:07:25.330Z,500
2017-02-21T12:08:34.427Z,500
2017-02-21T12:09:43.162Z,495
2017-02-21T12:10:52.260Z,520
2017-02-21T12:12:01.708Z,545
2017-02-21T12:13:10.773Z,560
2017-02-21T12:14:20.224Z,565
2017-02-21T12:15:29.344Z,580
2017-02-21T12:16:39.277Z,575
2017-02-21T12:17:48.426Z,575
2017-02-21T12:18:57.529Z,585
2017-02-21T12:20:07.372Z,620
2017-02-21T12:21:16.056Z,605
2017-02-21T12:22:25.117Z,545
2017-02-21T12:23:34.216Z,515
2017-02-21T12:24:43.694Z,555
2017-02-21T12:25:52.784Z,570
2017-02-21T12:27:02.621Z,540
2017-02-21T12:28:12.453Z,535
2017-02-21T12:29:21.518Z,560
2017-02-21T12:30:31.366Z,555
2017-02-21T12:31:41.210Z,540
2017-02-21T12:32:50.720Z,505
2017-02-21T12:34:00.177Z,500
2017-02-21T12:35:09.254Z,510
2017-02-21T12:36:18.742Z,525
2017-02-21T12:37:28.219Z,555
2017-02-21T12:38:37.660Z,630
2017-02-21T12:39:46.343Z,670
2017-02-21T12:40:55.811Z,705
2017-02-21T12:42:05.664Z,670
2017-02-21T12:43:14.737Z,670
2017-02-21T12:44:24.198Z,740
2017-02-21T12:45:33.671Z,655
2017-02-21T12:46:43.117Z,590
2017-02-21T12:47:52.571Z,560
2017-02-21T12:49:01.277Z,510
2017-02-21T12:50:11.118Z,600
2017-02-21T12:51:20.965Z,680
2017-02-21T12:52:30.052Z,665
2017-02-21T12:53:39.135Z,695
2017-02-21T12:54:48.226Z,670
2017-02-21T12:55:58.073Z,580
2017-02-21T12:57:07.909Z,555
2017-02-21T12:58:16.640Z,645
2017-02-21T12:59:26.503Z,710
2017-02-21T13:00:35.956Z,565
2017-02-21T13:01:46.204Z,460
2017-02-21T13:02:55.290Z,405
2017-02-21T13:04:04.741Z,380
2017-02-21T13:05:13.820Z,385
2017-02-21T13:06:22.907Z,385
2017-02-21T13:07:32.783Z,375
2017-02-21T13:08:42.259Z,460
2017-02-21T13:09:51.334Z,540
2017-02-21T13:11:01.187Z,570
2017-02-21T13:12:11.422Z,540
2017-02-21T13:13:20.549Z,545
2017-02-21T13:14:29.620Z,555
2017-02-21T13:15:38.701Z,565
2017-02-21T13:16:48.179Z,600
2017-02-21T13:17:57.639Z,605
2017-02-21T13:19:06.724Z,575
2017-02-21T13:20:15.417Z,535
2017-02-21T13:21:24.489Z,545
2017-02-21T13:22:33.556Z,585
2017-02-21T13:23:43.000Z,575
2017-02-21T13:24:52.454Z,570
2017-02-21T13:26:01.537Z,615
2017-02-21T13:27:11.386Z,620
2017-02-21T13:28:20.082Z,590
2017-02-21T13:29:29.155Z,560
2017-02-21T13:30:38.257Z,575
2017-02-21T13:31:47.733Z,560
2017-02-21T13:32:57.218Z,535
2017-02-21T13:34:07.073Z,540
2017-02-21T13:35:16.141Z,495
2017-02-21T13:36:25.221Z,445
2017-02-21T13:37:34.289Z,445
2017-02-21T13:38:43.763Z,455
2017-02-21T13:39:53.979Z,480
2017-02-21T13:41:03.810Z,495
2017-02-21T13:42:12.888Z,500
2017-02-21T13:43:22.334Z,495
2017-02-21T13:44:31.422Z,495
2017-02-21T13:45:40.116Z,490
2017-02-21T13:46:49.188Z,475
2017-02-21T13:47:57.893Z,460
2017-02-21T13:49:07.360Z,450
2017-02-21T13:50:16.060Z,450
2017-02-21T13:51:24.760Z,450
2017-02-21T13:52:33.843Z,460
2017-02-21T13:53:42.915Z,445
2017-02-21T13:54:52.388Z,430
2017-02-21T13:56:01.851Z,415
2017-02-21T13:57:12.060Z,415
2017-02-21T13:58:20.758Z,425
2017-02-21T13:59:29.830Z,435
2017-02-21T14:01:49.489Z,450
2017-02-21T14:04:07.501Z,465
2017-02-21T14:05:17.400Z,475
2017-02-21T14:06:27.249Z,515
2017-02-21T14:07:36.329Z,515
2017-02-21T14:08:45.011Z,510
2017-02-21T14:09:54.483Z,500
2017-02-21T14:11:03.938Z,490
2017-02-21T14:12:13.392Z,495
2017-02-21T14:13:22.458Z,480
2017-02-21T14:14:31.141Z,465
2017-02-21T14:15:39.821Z,450
2017-02-21T14:16:48.878Z,445
2017-02-21T14:17:58.331Z,455
2017-02-21T14:19:08.161Z,455
2017-02-21T14:20:16.858Z,445
2017-02-21T14:21:26.688Z,435
2017-02-21T14:22:35.381Z,415
2017-02-21T14:23:45.604Z,400
2017-02-21T14:24:55.047Z,400
2017-02-21T14:26:04.509Z,400
2017-02-21T14:27:13.620Z,425
2017-02-21T14:28:23.446Z,420
2017-02-21T14:29:32.910Z,405
2017-02-21T14:30:42.364Z,385
2017-02-21T14:31:51.833Z,375
2017-02-21T14:33:00.930Z,375
2017-02-21T14:34:10.381Z,370
2017-02-21T14:35:19.865Z,365
2017-02-21T14:36:30.084Z,365
2017-02-21T14:37:39.554Z,365
2017-02-21T14:38:49.020Z,370
2017-02-21T14:39:58.106Z,370
2017-02-21T14:41:07.176Z,370
2017-02-21T14:42:16.259Z,370
2017-02-21T14:43:25.703Z,375
2017-02-21T14:44:34.773Z,370
2017-02-21T14:45:44.230Z,365
2017-02-21T14:46:53.302Z,360
2017-02-21T14:48:02.367Z,360
2017-02-21T14:49:11.069Z,355
2017-02-21T14:50:20.919Z,350
2017-02-21T14:51:29.983Z,345
2017-02-21T14:52:39.060Z,340
2017-02-21T14:53:48.542Z,335
2017-02-21T14:54:57.991Z,330
2017-02-21T14:56:06.720Z,330
2017-02-21T14:57:16.178Z,330
2017-02-21T14:58:25.637Z,340
2017-02-21T14:59:35.469Z,340
2017-02-21T15:00:44.913Z,340
2017-02-21T15:01:54.367Z,345
2017-02-21T15:03:03.820Z,350
2017-02-21T15:04:12.907Z,350
2017-02-21T15:05:21.611Z,345
2017-02-21T15:06:31.083Z,345
2017-02-21T15:07:40.926Z,345
2017-02-21T15:08:49.988Z,345
2017-02-21T15:09:59.061Z,345
2017-02-21T15:11:08.890Z,350
2017-02-21T15:12:17.582Z,350
2017-02-21T15:13:26.280Z,345
2017-02-21T15:14:35.347Z,345
2017-02-21T15:15:44.836Z,345
2017-02-21T15:16:53.913Z,350
2017-02-21T15:18:02.989Z,350
2017-02-21T15:19:12.458Z,350
2017-02-21T15:20:21.529Z,360
2017-02-21T15:21:30.983Z,415
2017-02-21T15:22:40.438Z,455
2017-02-21T15:23:50.283Z,475
2017-02-21T15:25:00.143Z,495
2017-02-21T15:26:09.225Z,485
2017-02-21T15:27:18.314Z,490
2017-02-21T15:28:26.999Z,460
2017-02-21T15:29:36.082Z,445
2017-02-21T15:30:45.922Z,455
2017-02-21T15:31:55.005Z,450
2017-02-21T15:33:04.484Z,460
2017-02-21T15:34:14.700Z,450
2017-02-21T15:35:23.772Z,440
2017-02-21T15:36:33.595Z,385
2017-02-21T15:37:43.062Z,385
2017-02-21T15:38:52.913Z,355
2017-02-21T15:40:02.381Z,355
2017-02-21T15:41:12.224Z,380
2017-02-21T15:42:21.321Z,365
2017-02-21T15:43:30.026Z,315
2017-02-21T15:44:39.497Z,335
2017-02-21T15:45:48.568Z,335
2017-02-21T15:46:58.029Z,335
2017-02-21T15:48:07.116Z,370
2017-02-21T15:49:16.196Z,305
2017-02-21T15:50:25.287Z,290
2017-02-21T15:51:35.129Z,285
2017-02-21T15:52:44.206Z,290
2017-02-21T15:53:53.284Z,285
2017-02-21T15:55:02.361Z,275
2017-02-21T15:56:11.818Z,280
2017-02-21T15:57:21.279Z,280
2017-02-21T15:58:30.345Z,285
2017-02-21T15:59:39.417Z,260
2017-02-21T16:00:48.883Z,270
2017-02-21T16:01:57.967Z,205
2017-02-21T16:03:07.426Z,255
2017-02-21T16:04:16.889Z,255
2017-02-21T16:05:26.020Z,250
2017-02-21T16:06:35.861Z,235
2017-02-21T16:07:44.976Z,215
2017-02-21T16:08:54.059Z,195
2017-02-21T16:10:03.533Z,190
2017-02-21T16:11:13.375Z,175
2017-02-21T16:12:22.827Z,165
2017-02-21T16:13:32.681Z,165
2017-02-21T16:14:42.511Z,160
2017-02-21T16:15:51.594Z,170
2017-02-21T16:17:00.671Z,165
2017-02-21T16:18:09.377Z,160
2017-02-21T16:19:18.452Z,150
2017-02-21T16:20:27.165Z,135
2017-02-21T16:21:36.249Z,135
2017-02-21T16:22:45.336Z,125
2017-02-21T16:23:54.428Z,120